sensor_id;sensor_type;location;lat;lon;timestamp;pressure;altitude;pressure_sealevel;temperature;humidity
1401;BME280;46518;48.842;8.926;2023-02-04T00:00:35;98399.47;;;6.38;100.00
1401;BME280;46518;48.842;8.926;2023-02-04T00:03:04;98396.47;;;6.41;100.00
1401;BME280;46518;48.842;8.926;2023-02-04T00:05:34;98388.03;;;6.39;100.00
1401;BME280;46518;48.842;8.926;2023-02-04T00:08:02;98407.69;;;6.35;100.00
1401;BME280;46518;48.842;8.926;2023-02-04T00:10:31;98414.19;;;6.39;100.00
1401;BME280;46518;48.842;8.926;2023-02-04T00:12:59;98403.72;;;6.39;100.00
1401;BME280;46518;48.842;8.926;2023-02-04T00:15:28;98402.47;;;6.35;100.00
1401;BME280;46518;48.842;8.926;2023-02-04T00:17:56;98401.47;;;6.36;100.00
1401;BME280;46518;48.842;8.926;2023-02-04T00:20:25;98392.78;;;6.29;100.00
1401;BME280;46518;48.842;8.926;2023-02-04T00:22:54;98390.16;;;6.29;100.00
1401;BME280;46518;48.842;8.926;2023-02-04T00:25:23;98396.88;;;6.38;100.00
1401;BME280;46518;48.842;8.926;2023-02-04T00:27:51;98393.44;;;6.38;100.00
1401;BME280;46518;48.842;8.926;2023-02-04T00:30:19;98371.91;;;6.36;100.00
1401;BME280;46518;48.842;8.926;2023-02-04T00:32:47;98404.41;;;6.48;100.00
1401;BME280;46518;48.842;8.926;2023-02-04T00:35:20;98409.84;;;6.46;100.00
1401;BME280;46518;48.842;8.926;2023-02-04T00:37:51;98408.69;;;6.56;100.00
1401;BME280;46518;48.842;8.926;2023-02-04T00:40:20;98406.97;;;6.63;100.00
1401;BME280;46518;48.842;8.926;2023-02-04T00:42:48;98394.25;;;6.60;100.00
1401;BME280;46518;48.842;8.926;2023-02-04T00:45:17;98411.38;;;6.62;100.00
1401;BME280;46518;48.842;8.926;2023-02-04T00:47:45;98402.09;;;6.60;100.00
1401;BME280;46518;48.842;8.926;2023-02-04T00:50:13;98396.19;;;6.51;100.00
1401;BME280;46518;48.842;8.926;2023-02-04T00:52:42;98406.72;;;6.58;100.00
1401;BME280;46518;48.842;8.926;2023-02-04T00:55:11;98410.19;;;6.65;100.00
1401;BME280;46518;48.842;8.926;2023-02-04T00:57:40;98401.34;;;6.66;100.00
1401;BME280;46518;48.842;8.926;2023-02-04T01:00:09;98422.16;;;6.74;100.00
1401;BME280;46518;48.842;8.926;2023-02-04T01:02:38;98419.53;;;6.74;100.00
1401;BME280;46518;48.842;8.926;2023-02-04T01:05:07;98410.88;;;6.74;100.00
1401;BME280;46518;48.842;8.926;2023-02-04T01:07:36;98414.34;;;6.81;100.00
1401;BME280;46518;48.842;8.926;2023-02-04T01:10:05;98430.69;;;6.83;100.00
1401;BME280;46518;48.842;8.926;2023-02-04T01:12:33;98417.16;;;6.79;100.00
1401;BME280;46518;48.842;8.926;2023-02-04T01:15:03;98415.16;;;6.81;100.00
1401;BME280;46518;48.842;8.926;2023-02-04T01:17:31;98431.31;;;6.85;100.00
1401;BME280;46518;48.842;8.926;2023-02-04T01:19:59;98424.63;;;6.82;100.00
1401;BME280;46518;48.842;8.926;2023-02-04T01:22:28;98425.63;;;6.81;100.00
1401;BME280;46518;48.842;8.926;2023-02-04T01:24:56;98424.56;;;6.76;100.00
1401;BME280;46518;48.842;8.926;2023-02-04T01:27:39;98438.47;;;6.76;100.00
1401;BME280;46518;48.842;8.926;2023-02-04T01:30:10;98449.94;;;6.75;100.00
1401;BME280;46518;48.842;8.926;2023-02-04T01:32:39;98432.50;;;6.61;100.00
1401;BME280;46518;48.842;8.926;2023-02-04T01:35:07;98435.16;;;6.46;100.00
1401;BME280;46518;48.842;8.926;2023-02-04T01:37:35;98444.75;;;6.39;100.00
1401;BME280;46518;48.842;8.926;2023-02-04T01:40:04;98443.84;;;6.46;100.00
1401;BME280;46518;48.842;8.926;2023-02-04T01:42:33;98450.91;;;6.31;100.00
1401;BME280;46518;48.842;8.926;2023-02-04T01:45:02;98452.69;;;6.09;100.00
1401;BME280;46518;48.842;8.926;2023-02-04T01:47:34;98451.97;;;6.00;100.00
1401;BME280;46518;48.842;8.926;2023-02-04T01:50:05;98452.34;;;5.97;100.00
1401;BME280;46518;48.842;8.926;2023-02-04T01:52:36;98444.03;;;5.94;100.00
1401;BME280;46518;48.842;8.926;2023-02-04T01:55:11;98455.09;;;5.81;100.00
1401;BME280;46518;48.842;8.926;2023-02-04T01:57:40;98446.19;;;5.90;100.00
1401;BME280;46518;48.842;8.926;2023-02-04T02:00:14;98449.97;;;5.88;100.00
1401;BME280;46518;48.842;8.926;2023-02-04T02:02:45;98449.16;;;5.87;100.00
1401;BME280;46518;48.842;8.926;2023-02-04T02:05:18;98460.25;;;5.89;100.00
1401;BME280;46518;48.842;8.926;2023-02-04T02:07:48;98455.63;;;5.76;100.00
1401;BME280;46518;48.842;8.926;2023-02-04T02:10:18;98453.84;;;5.77;100.00
1401;BME280;46518;48.842;8.926;2023-02-04T02:12:47;98439.16;;;5.76;100.00
1401;BME280;46518;48.842;8.926;2023-02-04T02:15:15;98463.19;;;5.86;100.00
1401;BME280;46518;48.842;8.926;2023-02-04T02:17:46;98449.97;;;5.88;100.00
1401;BME280;46518;48.842;8.926;2023-02-04T02:20:16;98458.06;;;5.78;100.00
1401;BME280;46518;48.842;8.926;2023-02-04T02:22:52;98452.47;;;5.81;100.00
1401;BME280;46518;48.842;8.926;2023-02-04T02:25:24;98456.53;;;5.83;100.00
1401;BME280;46518;48.842;8.926;2023-02-04T02:27:53;98447.63;;;5.78;100.00
1401;BME280;46518;48.842;8.926;2023-02-04T02:30:22;98447.53;;;5.71;100.00
1401;BME280;46518;48.842;8.926;2023-02-04T02:32:51;98455.09;;;5.81;100.00
1401;BME280;46518;48.842;8.926;2023-02-04T02:35:20;98457.53;;;5.82;100.00
1401;BME280;46518;48.842;8.926;2023-02-04T02:37:48;98461.59;;;5.85;100.00
1401;BME280;46518;48.842;8.926;2023-02-04T02:40:17;98454.66;;;5.92;100.00
1401;BME280;46518;48.842;8.926;2023-02-04T02:42:49;98473.75;;;5.93;100.00
1401;BME280;46518;48.842;8.926;2023-02-04T02:45:22;98487.91;;;5.98;100.00
1401;BME280;46518;48.842;8.926;2023-02-04T02:47:51;98485.28;;;5.98;100.00
1401;BME280;46518;48.842;8.926;2023-02-04T02:50:22;98484.31;;;5.99;100.00
1401;BME280;46518;48.842;8.926;2023-02-04T02:52:51;98480.00;;;6.07;100.00
1401;BME280;46518;48.842;8.926;2023-02-04T02:55:22;98476.53;;;5.91;100.00
1401;BME280;46518;48.842;8.926;2023-02-04T02:57:53;98476.19;;;5.79;100.00
1401;BME280;46518;48.842;8.926;2023-02-04T03:00:25;98472.75;;;5.64;100.00
1401;BME280;46518;48.842;8.926;2023-02-04T03:02:58;98480.88;;;5.54;100.00
1401;BME280;46518;48.842;8.926;2023-02-04T03:05:29;98479.50;;;5.58;100.00
1401;BME280;46518;48.842;8.926;2023-02-04T03:08:09;98470.97;;;5.50;100.00
1401;BME280;46518;48.842;8.926;2023-02-04T03:10:38;98466.53;;;5.50;100.00
1401;BME280;46518;48.842;8.926;2023-02-04T03:13:08;98459.88;;;5.33;100.00
1401;BME280;46518;48.842;8.926;2023-02-04T03:15:36;98479.84;;;5.40;100.00
1401;BME280;46518;48.842;8.926;2023-02-04T03:18:05;98482.47;;;5.40;100.00
1401;BME280;46518;48.842;8.926;2023-02-04T03:20:35;98476.44;;;5.40;100.00
1401;BME280;46518;48.842;8.926;2023-02-04T03:23:04;98488.31;;;5.43;100.00
1401;BME280;46518;48.842;8.926;2023-02-04T03:25:32;98497.06;;;5.50;100.00
1401;BME280;46518;48.842;8.926;2023-02-04T03:28:00;98508.59;;;5.55;100.00
1401;BME280;46518;48.842;8.926;2023-02-04T03:30:30;98509.94;;;5.51;100.00
1401;BME280;46518;48.842;8.926;2023-02-04T03:32:59;98534.72;;;5.55;100.00
1401;BME280;46518;48.842;8.926;2023-02-04T03:35:27;98528.41;;;5.50;100.00
1401;BME280;46518;48.842;8.926;2023-02-04T03:37:56;98533.44;;;5.51;100.00
1401;BME280;46518;48.842;8.926;2023-02-04T03:40:26;98538.94;;;5.56;100.00
1401;BME280;46518;48.842;8.926;2023-02-04T03:42:56;98551.09;;;5.49;100.00
1401;BME280;46518;48.842;8.926;2023-02-04T03:45:24;98541.22;;;5.36;100.00
1401;BME280;46518;48.842;8.926;2023-02-04T03:47:59;98544.84;;;5.35;100.00
1401;BME280;46518;48.842;8.926;2023-02-04T03:50:28;98550.75;;;5.52;100.00
1401;BME280;46518;48.842;8.926;2023-02-04T03:52:56;98550.28;;;5.63;100.00
1401;BME280;46518;48.842;8.926;2023-02-04T03:55:25;98548.56;;;5.56;100.00
1401;BME280;46518;48.842;8.926;2023-02-04T03:57:53;98553.00;;;5.55;100.00
1401;BME280;46518;48.842;8.926;2023-02-04T04:00:21;98564.34;;;5.62;100.00
1401;BME280;46518;48.842;8.926;2023-02-04T04:02:49;98568.94;;;5.60;100.00
1401;BME280;46518;48.842;8.926;2023-02-04T04:05:19;98555.19;;;5.67;100.00
1401;BME280;46518;48.842;8.926;2023-02-04T04:07:47;98542.09;;;5.52;100.00
1401;BME280;46518;48.842;8.926;2023-02-04T04:10:16;98554.16;;;5.53;100.00
1401;BME280;46518;48.842;8.926;2023-02-04T04:12:44;98568.84;;;5.54;100.00
1401;BME280;46518;48.842;8.926;2023-02-04T04:15:12;98563.97;;;5.51;100.00
1401;BME280;46518;48.842;8.926;2023-02-04T04:17:42;98575.88;;;5.68;100.00
1401;BME280;46518;48.842;8.926;2023-02-04T04:20:11;98567.78;;;5.63;100.00
1401;BME280;46518;48.842;8.926;2023-02-04T04:22:40;98569.88;;;5.68;100.00
1401;BME280;46518;48.842;8.926;2023-02-04T04:25:08;98570.38;;;5.63;100.00
1401;BME280;46518;48.842;8.926;2023-02-04T04:27:36;98564.34;;;5.62;100.00
1401;BME280;46518;48.842;8.926;2023-02-04T04:30:05;98580.59;;;5.73;100.00
1401;BME280;46518;48.842;8.926;2023-02-04T04:32:33;98561.19;;;5.52;100.00
1401;BME280;46518;48.842;8.926;2023-02-04T04:35:02;98550.19;;;5.42;100.00
1401;BME280;46518;48.842;8.926;2023-02-04T04:37:30;98566.78;;;5.49;100.00
1401;BME280;46518;48.842;8.926;2023-02-04T04:40:02;98580.03;;;5.62;100.00
1401;BME280;46518;48.842;8.926;2023-02-04T04:42:30;98564.16;;;5.49;100.00
1401;BME280;46518;48.842;8.926;2023-02-04T04:44:59;98576.50;;;5.55;100.00
1401;BME280;46518;48.842;8.926;2023-02-04T04:47:27;98579.81;;;5.49;100.00
1401;BME280;46518;48.842;8.926;2023-02-04T04:49:55;98594.69;;;5.63;100.00
1401;BME280;46518;48.842;8.926;2023-02-04T04:52:23;98577.22;;;5.64;100.00
1401;BME280;46518;48.842;8.926;2023-02-04T04:54:52;98573.81;;;5.63;100.00
1401;BME280;46518;48.842;8.926;2023-02-04T04:57:21;98565.13;;;5.48;100.00
1401;BME280;46518;48.842;8.926;2023-02-04T04:59:49;98583.94;;;5.67;100.00
1401;BME280;46518;48.842;8.926;2023-02-04T05:02:17;98590.88;;;5.74;100.00
1401;BME280;46518;48.842;8.926;2023-02-04T05:04:46;98583.00;;;5.59;100.00
1401;BME280;46518;48.842;8.926;2023-02-04T05:07:14;98600.16;;;5.77;100.00
1401;BME280;46518;48.842;8.926;2023-02-04T05:09:42;98593.28;;;5.76;100.00
1401;BME280;46518;48.842;8.926;2023-02-04T05:12:10;98588.78;;;5.70;100.00
1401;BME280;46518;48.842;8.926;2023-02-04T05:14:40;98595.59;;;5.56;100.00
1401;BME280;46518;48.842;8.926;2023-02-04T05:17:08;98584.06;;;5.50;100.00
1401;BME280;46518;48.842;8.926;2023-02-04T05:19:37;98583.88;;;5.52;100.00
1401;BME280;46518;48.842;8.926;2023-02-04T05:22:05;98587.66;;;5.64;100.00
1401;BME280;46518;48.842;8.926;2023-02-04T05:24:33;98591.81;;;5.58;100.00
1401;BME280;46518;48.842;8.926;2023-02-04T05:27:01;98594.97;;;5.69;100.00
1401;BME280;46518;48.842;8.926;2023-02-04T05:29:29;98586.50;;;5.52;100.00
1401;BME280;46518;48.842;8.926;2023-02-04T05:31:59;98576.28;;;5.42;100.00
1401;BME280;46518;48.842;8.926;2023-02-04T05:34:27;98586.22;;;5.47;100.00
1401;BME280;46518;48.842;8.926;2023-02-04T05:36:55;98599.72;;;5.50;100.00
1401;BME280;46518;48.842;8.926;2023-02-04T05:39:23;98608.28;;;5.59;100.00
1401;BME280;46518;48.842;8.926;2023-02-04T05:41:51;98598.56;;;5.53;100.00
1401;BME280;46518;48.842;8.926;2023-02-04T05:44:19;98619.13;;;5.71;100.00
1401;BME280;46518;48.842;8.926;2023-02-04T05:46:48;98607.59;;;5.65;100.00
1401;BME280;46518;48.842;8.926;2023-02-04T05:49:17;98615.91;;;5.83;100.00
1401;BME280;46518;48.842;8.926;2023-02-04T05:51:46;98607.72;;;5.72;100.00
1401;BME280;46518;48.842;8.926;2023-02-04T05:54:14;98594.41;;;5.58;100.00
1401;BME280;46518;48.842;8.926;2023-02-04T05:56:45;98618.50;;;5.69;100.00
1401;BME280;46518;48.842;8.926;2023-02-04T05:59:14;98624.56;;;5.69;100.00
1401;BME280;46518;48.842;8.926;2023-02-04T06:01:42;98630.88;;;5.75;100.00
1401;BME280;46518;48.842;8.926;2023-02-04T06:04:10;98617.88;;;5.67;100.00
1401;BME280;46518;48.842;8.926;2023-02-04T06:06:40;98645.88;;;5.96;100.00
1401;BME280;46518;48.842;8.926;2023-02-04T06:09:08;98634.97;;;5.92;100.00
1401;BME280;46518;48.842;8.926;2023-02-04T06:11:37;98648.25;;;6.05;100.00
1401;BME280;46518;48.842;8.926;2023-02-04T06:14:05;98644.56;;;6.00;100.00
1401;BME280;46518;48.842;8.926;2023-02-04T06:16:34;98665.28;;;6.16;100.00
1401;BME280;46518;48.842;8.926;2023-02-04T06:19:02;98657.13;;;5.96;100.00
1401;BME280;46518;48.842;8.926;2023-02-04T06:21:30;98645.28;;;5.86;100.00
1401;BME280;46518;48.842;8.926;2023-02-04T06:24:00;98652.25;;;5.93;100.00
1401;BME280;46518;48.842;8.926;2023-02-04T06:26:30;98671.25;;;6.10;100.00
1401;BME280;46518;48.842;8.926;2023-02-04T06:28:58;98641.50;;;5.88;100.00
1401;BME280;46518;48.842;8.926;2023-02-04T06:31:27;98662.47;;;6.03;100.00
1401;BME280;46518;48.842;8.926;2023-02-04T06:33:55;98685.22;;;6.17;100.00
1401;BME280;46518;48.842;8.926;2023-02-04T06:36:23;98679.59;;;6.05;100.00
1401;BME280;46518;48.842;8.926;2023-02-04T06:38:52;98682.66;;;5.94;100.00
1401;BME280;46518;48.842;8.926;2023-02-04T06:41:21;98671.66;;;5.99;100.00
1401;BME280;46518;48.842;8.926;2023-02-04T06:43:49;98666.44;;;5.76;100.00
1401;BME280;46518;48.842;8.926;2023-02-04T06:46:18;98669.25;;;5.74;100.00
1401;BME280;46518;48.842;8.926;2023-02-04T06:48:46;98665.94;;;5.57;100.00
1401;BME280;46518;48.842;8.926;2023-02-04T06:51:14;98694.53;;;5.74;100.00
1401;BME280;46518;48.842;8.926;2023-02-04T06:53:43;98695.13;;;5.61;100.00
1401;BME280;46518;48.842;8.926;2023-02-04T06:56:12;98677.34;;;5.33;100.00
1401;BME280;46518;48.842;8.926;2023-02-04T06:58:42;98713.59;;;5.59;100.00
1401;BME280;46518;48.842;8.926;2023-02-04T07:01:10;98715.03;;;5.62;100.00
1401;BME280;46518;48.842;8.926;2023-02-04T07:03:38;98700.06;;;5.56;100.00
1401;BME280;46518;48.842;8.926;2023-02-04T07:06:06;98682.50;;;5.41;100.00
1401;BME280;46518;48.842;8.926;2023-02-04T07:08:34;98702.66;;;5.56;100.00
1401;BME280;46518;48.842;8.926;2023-02-04T07:11:03;98710.06;;;5.44;100.00
1401;BME280;46518;48.842;8.926;2023-02-04T07:13:31;98689.94;;;5.30;100.00
1401;BME280;46518;48.842;8.926;2023-02-04T07:16:00;98694.38;;;5.29;100.00
1401;BME280;46518;48.842;8.926;2023-02-04T07:18:28;98726.69;;;5.51;100.00
1401;BME280;46518;48.842;8.926;2023-02-04T07:20:57;98711.22;;;5.41;100.00
1401;BME280;46518;48.842;8.926;2023-02-04T07:23:25;98744.81;;;5.53;100.00
1401;BME280;46518;48.842;8.926;2023-02-04T07:25:54;98721.44;;;5.59;100.00
1401;BME280;46518;48.842;8.926;2023-02-04T07:28:25;98744.53;;;5.71;100.00
1401;BME280;46518;48.842;8.926;2023-02-04T07:30:53;98721.44;;;5.59;100.00
1401;BME280;46518;48.842;8.926;2023-02-04T07:33:23;98755.91;;;5.78;100.00
1401;BME280;46518;48.842;8.926;2023-02-04T07:35:52;98704.69;;;5.46;100.00
1401;BME280;46518;48.842;8.926;2023-02-04T07:38:20;98721.28;;;5.53;100.00
1401;BME280;46518;48.842;8.926;2023-02-04T07:40:48;98749.59;;;5.72;100.00
1401;BME280;46518;48.842;8.926;2023-02-04T07:43:17;98753.28;;;5.78;100.00
1401;BME280;46518;48.842;8.926;2023-02-04T07:45:45;98741.84;;;5.56;100.00
1401;BME280;46518;48.842;8.926;2023-02-04T07:48:13;98753.53;;;5.68;100.00
1401;BME280;46518;48.842;8.926;2023-02-04T07:50:43;98746.25;;;5.55;100.00
1401;BME280;46518;48.842;8.926;2023-02-04T07:53:12;98750.47;;;5.56;100.00
1401;BME280;46518;48.842;8.926;2023-02-04T07:55:40;98763.97;;;5.68;100.00
1401;BME280;46518;48.842;8.926;2023-02-04T07:58:09;98759.47;;;5.54;100.00
1401;BME280;46518;48.842;8.926;2023-02-04T08:00:38;98756.88;;;5.54;100.00
1401;BME280;46518;48.842;8.926;2023-02-04T08:03:06;98778.34;;;5.64;100.00
1401;BME280;46518;48.842;8.926;2023-02-04T08:05:34;98783.19;;;5.75;100.00
1401;BME280;46518;48.842;8.926;2023-02-04T08:08:04;98758.88;;;5.75;100.00
1401;BME280;46518;48.842;8.926;2023-02-04T08:10:33;98751.38;;;5.72;100.00
1401;BME280;46518;48.842;8.926;2023-02-04T08:13:01;98762.13;;;5.77;100.00
1401;BME280;46518;48.842;8.926;2023-02-04T08:15:29;98770.06;;;5.83;100.00
1401;BME280;46518;48.842;8.926;2023-02-04T08:17:58;98773.19;;;5.79;100.00
1401;BME280;46518;48.842;8.926;2023-02-04T08:20:27;98793.31;;;6.01;100.00
1401;BME280;46518;48.842;8.926;2023-02-04T08:22:56;98777.88;;;5.92;100.00
1401;BME280;46518;48.842;8.926;2023-02-04T08:25:26;98804.09;;;5.75;100.00
1401;BME280;46518;48.842;8.926;2023-02-04T08:27:55;98786.16;;;5.41;100.00
1401;BME280;46518;48.842;8.926;2023-02-04T08:30:30;98792.97;;;5.50;100.00
1401;BME280;46518;48.842;8.926;2023-02-04T08:32:59;98783.84;;;5.46;100.00
1401;BME280;46518;48.842;8.926;2023-02-04T08:35:28;98777.84;;;5.37;100.00
1401;BME280;46518;48.842;8.926;2023-02-04T08:37:56;98809.78;;;5.79;100.00
1401;BME280;46518;48.842;8.926;2023-02-04T08:40:26;98770.91;;;5.53;100.00
1401;BME280;46518;48.842;8.926;2023-02-04T08:42:54;98799.25;;;5.64;100.00
1401;BME280;46518;48.842;8.926;2023-02-04T08:45:23;98803.28;;;5.75;100.00
1401;BME280;46518;48.842;8.926;2023-02-04T08:47:52;98810.03;;;5.69;100.00
1401;BME280;46518;48.842;8.926;2023-02-04T08:50:20;98797.78;;;5.61;100.00
1401;BME280;46518;48.842;8.926;2023-02-04T08:52:49;98802.84;;;5.63;100.00
1401;BME280;46518;48.842;8.926;2023-02-04T08:55:17;98796.09;;;5.46;100.00
1401;BME280;46518;48.842;8.926;2023-02-04T08:57:47;98814.38;;;5.46;100.00
1401;BME280;46518;48.842;8.926;2023-02-04T09:00:16;98833.19;;;5.64;100.00
1401;BME280;46518;48.842;8.926;2023-02-04T09:02:44;98840.22;;;5.63;100.00
1401;BME280;46518;48.842;8.926;2023-02-04T09:05:13;98818.38;;;5.56;100.00
1401;BME280;46518;48.842;8.926;2023-02-04T09:07:41;98838.78;;;5.61;100.00
1401;BME280;46518;48.842;8.926;2023-02-04T09:10:10;98844.81;;;5.61;100.00
1401;BME280;46518;48.842;8.926;2023-02-04T09:12:38;98852.41;;;5.79;100.00
1401;BME280;46518;48.842;8.926;2023-02-04T09:15:11;98842.19;;;5.61;100.00
1401;BME280;46518;48.842;8.926;2023-02-04T09:17:39;98842.19;;;5.61;100.00
1401;BME280;46518;48.842;8.926;2023-02-04T09:20:10;98828.88;;;5.48;100.00
1401;BME280;46518;48.842;8.926;2023-02-04T09:22:38;98846.59;;;5.69;100.00
1401;BME280;46518;48.842;8.926;2023-02-04T09:28:17;98838.06;;;5.75;100.00
1401;BME280;46518;48.842;8.926;2023-02-04T09:30:56;98858.69;;;5.93;99.50
1401;BME280;46518;48.842;8.926;2023-02-04T09:33:46;98875.56;;;6.22;99.08
1401;BME280;46518;48.842;8.926;2023-02-04T09:36:19;98854.59;;;5.99;97.28
1401;BME280;46518;48.842;8.926;2023-02-04T09:39:01;98880.72;;;6.30;97.13
1401;BME280;46518;48.842;8.926;2023-02-04T09:42:59;98873.16;;;6.35;95.79
1401;BME280;46518;48.842;8.926;2023-02-04T10:47:58;98879.41;;;7.10;78.14
1401;BME280;46518;48.842;8.926;2023-02-04T10:50:27;98874.53;;;7.07;80.23
1401;BME280;46518;48.842;8.926;2023-02-04T10:52:58;98870.75;;;7.09;79.94
1401;BME280;46518;48.842;8.926;2023-02-04T10:55:40;98858.63;;;7.08;76.44
1401;BME280;46518;48.842;8.926;2023-02-04T10:58:13;98870.56;;;7.41;76.35
1401;BME280;46518;48.842;8.926;2023-02-04T11:00:42;98869.47;;;7.35;76.64
1401;BME280;46518;48.842;8.926;2023-02-04T11:03:15;98880.97;;;7.49;76.16
1401;BME280;46518;48.842;8.926;2023-02-04T11:05:46;98882.03;;;7.54;75.34
1401;BME280;46518;48.842;8.926;2023-02-04T11:08:21;98885.91;;;7.59;76.37
1401;BME280;46518;48.842;8.926;2023-02-04T11:10:53;98879.78;;;7.66;75.23
1401;BME280;46518;48.842;8.926;2023-02-04T11:13:24;98867.94;;;7.55;75.63
1401;BME280;46518;48.842;8.926;2023-02-04T11:16:09;98872.25;;;7.63;74.59
1401;BME280;46518;48.842;8.926;2023-02-04T11:18:47;98857.91;;;7.59;74.54
1401;BME280;46518;48.842;8.926;2023-02-04T11:21:25;98878.28;;;7.78;74.19
1401;BME280;46518;48.842;8.926;2023-02-04T11:24:05;98889.91;;;7.91;73.09
1401;BME280;46518;48.842;8.926;2023-02-04T11:26:48;98881.22;;;8.05;73.04
1401;BME280;46518;48.842;8.926;2023-02-04T11:29:28;98872.25;;;8.14;73.80
1401;BME280;46518;48.842;8.926;2023-02-04T11:32:03;98874.50;;;8.17;72.74
1401;BME280;46518;48.842;8.926;2023-02-04T11:34:48;98869.00;;;8.12;72.56
1401;BME280;46518;48.842;8.926;2023-02-04T11:37:35;98875.38;;;8.25;71.91
1401;BME280;46518;48.842;8.926;2023-02-04T11:40:29;98857.69;;;8.12;70.91
1401;BME280;46518;48.842;8.926;2023-02-04T11:43:02;98881.25;;;8.27;70.26
1401;BME280;46518;48.842;8.926;2023-02-04T11:45:32;98851.56;;;8.26;69.61
1401;BME280;46518;48.842;8.926;2023-02-04T11:48:03;98876.50;;;8.37;69.30
1401;BME280;46518;48.842;8.926;2023-02-04T11:50:40;98862.25;;;8.46;68.77
1401;BME280;46518;48.842;8.926;2023-02-04T11:53:09;98877.03;;;8.47;68.69
1401;BME280;46518;48.842;8.926;2023-02-04T11:55:44;98874.09;;;8.57;68.75
1401;BME280;46518;48.842;8.926;2023-02-04T11:58:14;98865.03;;;8.59;68.63
1401;BME280;46518;48.842;8.926;2023-02-04T12:00:43;98871.66;;;8.55;65.79
1401;BME280;46518;48.842;8.926;2023-02-04T12:03:21;98875.56;;;8.66;65.53
1401;BME280;46518;48.842;8.926;2023-02-04T12:05:52;98878.16;;;8.59;66.11
1401;BME280;46518;48.842;8.926;2023-02-04T12:08:29;98880.47;;;8.69;66.58
1401;BME280;46518;48.842;8.926;2023-02-04T12:11:05;98884.78;;;8.83;66.16
1401;BME280;46518;48.842;8.926;2023-02-04T12:13:45;98881.25;;;8.70;63.29
1401;BME280;46518;48.842;8.926;2023-02-04T12:16:14;98880.91;;;8.51;62.77
1401;BME280;46518;48.842;8.926;2023-02-04T12:18:42;98885.19;;;8.37;61.49
1401;BME280;46518;48.842;8.926;2023-02-04T12:21:12;98888.34;;;8.33;63.52
1401;BME280;46518;48.842;8.926;2023-02-04T12:23:41;98889.63;;;8.37;64.49
1401;BME280;46518;48.842;8.926;2023-02-04T12:26:10;98884.66;;;8.42;64.35
1401;BME280;46518;48.842;8.926;2023-02-04T12:28:38;98884.09;;;8.47;63.79
1401;BME280;46518;48.842;8.926;2023-02-04T12:31:06;98885.41;;;8.57;64.50
1401;BME280;46518;48.842;8.926;2023-02-04T12:33:35;98887.47;;;8.62;64.38
1401;BME280;46518;48.842;8.926;2023-02-04T12:36:04;98882.28;;;8.69;64.11
1401;BME280;46518;48.842;8.926;2023-02-04T12:38:34;98876.41;;;8.67;64.63
1401;BME280;46518;48.842;8.926;2023-02-04T12:41:02;98881.13;;;8.78;65.10
1401;BME280;46518;48.842;8.926;2023-02-04T12:43:30;98878.63;;;8.70;63.14
1401;BME280;46518;48.842;8.926;2023-02-04T12:45:58;98884.69;;;8.27;58.62
1401;BME280;46518;48.842;8.926;2023-02-04T12:48:27;98887.00;;;8.00;60.16
1401;BME280;46518;48.842;8.926;2023-02-04T12:50:55;98889.31;;;7.89;61.64
1401;BME280;46518;48.842;8.926;2023-02-04T12:53:23;98895.09;;;7.84;59.37
1401;BME280;46518;48.842;8.926;2023-02-04T12:55:53;98898.28;;;7.80;58.59
1401;BME280;46518;48.842;8.926;2023-02-04T12:58:23;98895.28;;;7.83;59.29
1401;BME280;46518;48.842;8.926;2023-02-04T13:00:51;98897.63;;;7.92;58.00
1401;BME280;46518;48.842;8.926;2023-02-04T13:03:20;98890.59;;;8.14;59.43
1401;BME280;46518;48.842;8.926;2023-02-04T13:05:49;98886.03;;;8.23;60.31
1401;BME280;46518;48.842;8.926;2023-02-04T13:08:17;98889.28;;;8.40;59.72
1401;BME280;46518;48.842;8.926;2023-02-04T13:10:45;98887.63;;;8.39;59.09
1401;BME280;46518;48.842;8.926;2023-02-04T13:13:19;98897.41;;;8.45;59.24
1401;BME280;46518;48.842;8.926;2023-02-04T13:15:47;98888.25;;;8.41;58.30
1401;BME280;46518;48.842;8.926;2023-02-04T13:18:15;98891.53;;;8.28;57.87
1401;BME280;46518;48.842;8.926;2023-02-04T13:20:44;98885.72;;;8.11;59.81
1401;BME280;46518;48.842;8.926;2023-02-04T13:23:13;98891.31;;;8.08;60.58
1401;BME280;46518;48.842;8.926;2023-02-04T13:25:41;98882.81;;;8.06;59.55
1401;BME280;46518;48.842;8.926;2023-02-04T13:28:10;98882.53;;;8.16;60.24
1401;BME280;46518;48.842;8.926;2023-02-04T13:30:39;98886.47;;;8.41;60.70
1401;BME280;46518;48.842;8.926;2023-02-04T13:33:08;98883.88;;;8.27;58.90
1401;BME280;46518;48.842;8.926;2023-02-04T13:35:36;98888.63;;;8.16;58.97
1401;BME280;46518;48.842;8.926;2023-02-04T13:38:04;98877.19;;;8.24;59.83
1401;BME280;46518;48.842;8.926;2023-02-04T13:40:32;98891.13;;;8.46;60.79
1401;BME280;46518;48.842;8.926;2023-02-04T13:43:00;98895.91;;;8.57;61.73
1401;BME280;46518;48.842;8.926;2023-02-04T13:45:28;98893.81;;;8.74;62.51
1401;BME280;46518;48.842;8.926;2023-02-04T13:47:58;98894.94;;;8.87;62.65
1401;BME280;46518;48.842;8.926;2023-02-04T13:50:27;98899.09;;;9.02;62.78
1401;BME280;46518;48.842;8.926;2023-02-04T13:52:55;98904.81;;;9.13;62.81
1401;BME280;46518;48.842;8.926;2023-02-04T13:55:23;98904.75;;;9.06;62.21
1401;BME280;46518;48.842;8.926;2023-02-04T13:57:51;98908.69;;;9.17;62.31
1401;BME280;46518;48.842;8.926;2023-02-04T14:00:19;98902.34;;;9.04;62.59
1401;BME280;46518;48.842;8.926;2023-02-04T14:02:47;98910.84;;;9.06;62.68
1401;BME280;46518;48.842;8.926;2023-02-04T14:05:17;98905.16;;;9.03;62.60
1401;BME280;46518;48.842;8.926;2023-02-04T14:07:45;98907.69;;;8.90;63.17
1401;BME280;46518;48.842;8.926;2023-02-04T14:12:41;98896.00;;;8.71;63.99
1401;BME280;46518;48.842;8.926;2023-02-04T14:15:09;98901.75;;;8.81;64.76
1401;BME280;46518;48.842;8.926;2023-02-04T14:17:37;98909.13;;;8.71;65.39
1401;BME280;46518;48.842;8.926;2023-02-04T14:20:06;98913.25;;;8.58;66.60
1401;BME280;46518;48.842;8.926;2023-02-04T14:22:36;98918.88;;;8.55;66.43
1401;BME280;46518;48.842;8.926;2023-02-04T14:25:05;98921.09;;;8.52;66.74
1401;BME280;46518;48.842;8.926;2023-02-04T14:27:33;98920.63;;;8.48;67.42
1401;BME280;46518;48.842;8.926;2023-02-04T14:30:02;98914.16;;;8.44;67.98
1401;BME280;46518;48.842;8.926;2023-02-04T14:32:31;98915.38;;;8.48;67.73
1401;BME280;46518;48.842;8.926;2023-02-04T14:34:59;98919.41;;;8.44;68.10
1401;BME280;46518;48.842;8.926;2023-02-04T14:37:27;98925.69;;;8.50;68.65